Curlew — WDC3399 — position and weather

sailwx.info

Track history (hours):
 
Tides and Currents Weather Stations Pressure Air Temp Water Temp Dewpoint Dewpoint Depression Visibility Wind Speed Wind Dir Waves Ship Positions

Curlew

Owner: Danz, Thierry, Philadelphia, PA. More information available from US FCC via Universal Licensing System and Coast Guard Vessel Documentation Center.

Last reported at 2017-Oct-17 18:23 UTC. Time now 2017-Oct-20 14:16 UTC.
Position N 39°17' W 076°35'.

Length 14 m.

Type: Sailing vessel. MMSI: 367007280.

Date/timePositionNaut miles runAvg speedWind from/ knotsBaromVisibWave heightAir tempDewpointWater temp
2017-Oct-17 18:23N 39°17' W 076°35'0 0.0
2017-Oct-17 17:59N 39°17' W 076°35'0 0.0
2017-Oct-17 17:29N 39°17' W 076°35'0 0.0
2017-Oct-17 16:59N 39°17' W 076°35'0 0.0
2017-Oct-17 16:29N 39°17' W 076°35'0 0.0
2017-Oct-17 15:59N 39°17' W 076°35'0 0.0
2017-Oct-17 15:29N 39°17' W 076°35'0 0.0
2017-Oct-17 14:59N 39°17' W 076°35'0 0.0
2017-Oct-17 14:29N 39°17' W 076°35'0 0.0
2017-Oct-16 17:04N 39°17' W 076°35'0 0.0
2017-Oct-16 16:58N 39°17' W 076°35'0 0.0
2017-Oct-16 16:25N 39°17' W 076°35'0 0.0
2017-Oct-16 15:58N 39°17' W 076°35'0 0.0
2017-Oct-16 15:25N 39°17' W 076°35'0 0.0
2017-Oct-16 14:55N 39°17' W 076°35'0 0.0
2017-Oct-16 14:28N 39°17' W 076°35'0 0.0
2017-Oct-14 21:23N 39°17' W 076°35'0 0.0
2017-Oct-14 20:59N 39°17' W 076°35'0 0.0
2017-Oct-14 20:29N 39°17' W 076°35'0 0.0
2017-Oct-14 19:59N 39°17' W 076°35'0 0.0
2017-Oct-14 19:29N 39°17' W 076°35'0 0.0
2017-Oct-14 18:59N 39°17' W 076°35'0 0.0
2017-Oct-14 18:29N 39°17' W 076°35'0 0.4
2017-Oct-14 18:00N 39°17' W 076°35'4 5.5
2017-Oct-14 17:15N 39°13' W 076°32'14 0.6
2017-Oct-13 18:52N 39°01' W 076°22'2 5.0
2017-Oct-13 18:30N 38°59' W 076°23'2 4.2
2017-Oct-13 18:00N 38°57' W 076°23'8 3.2
2017-Oct-13 15:25N 38°52' W 076°31'1 0.0
2017-Oct-12 14:05N 38°53' W 076°31'1 5.2
2017-Oct-12 13:59N 38°52' W 076°31'2 3.9
2017-Oct-12 13:30N 38°51' W 076°32'0 0.0
2017-Oct-11 18:13N 38°50' W 076°32'0 0.0
2017-Oct-11 17:58N 38°50' W 076°32'0 0.0
2017-Oct-11 17:30N 38°50' W 076°32'  
Track history (hours):
 
Tides and Currents Weather Stations Pressure Air Temp Water Temp Dewpoint Dewpoint Depression Visibility Wind Speed Wind Dir Waves Ship Positions

Curlew

Owner: Danz, Thierry, Philadelphia, PA. More information available from US FCC via Universal Licensing System and Coast Guard Vessel Documentation Center.

Last reported at 2017-Oct-17 18:23 UTC. Time now 2017-Oct-20 14:16 UTC.
Position N 39°17' W 076°35'.

Length 14 m.

Type: Sailing vessel. MMSI: 367007280.

Date/timePositionNaut miles runAvg speedWind from/ knotsBaromVisibWave heightAir tempDewpointWater temp
2017-Oct-17 18:23N 39°17' W 076°35'0 0.0
2017-Oct-17 17:59N 39°17' W 076°35'0 0.0
2017-Oct-17 17:29N 39°17' W 076°35'0 0.0
2017-Oct-17 16:59N 39°17' W 076°35'0 0.0
2017-Oct-17 16:29N 39°17' W 076°35'0 0.0
2017-Oct-17 15:59N 39°17' W 076°35'0 0.0
2017-Oct-17 15:29N 39°17' W 076°35'0 0.0
2017-Oct-17 14:59N 39°17' W 076°35'0 0.0
2017-Oct-17 14:29N 39°17' W 076°35'0 0.0
2017-Oct-16 17:04N 39°17' W 076°35'0 0.0
2017-Oct-16 16:58N 39°17' W 076°35'0 0.0
2017-Oct-16 16:25N 39°17' W 076°35'0 0.0
2017-Oct-16 15:58N 39°17' W 076°35'0 0.0
2017-Oct-16 15:25N 39°17' W 076°35'0 0.0
2017-Oct-16 14:55N 39°17' W 076°35'0 0.0
2017-Oct-16 14:28N 39°17' W 076°35'0 0.0
2017-Oct-14 21:23N 39°17' W 076°35'0 0.0
2017-Oct-14 20:59N 39°17' W 076°35'0 0.0
2017-Oct-14 20:29N 39°17' W 076°35'0 0.0
2017-Oct-14 19:59N 39°17' W 076°35'0 0.0
2017-Oct-14 19:29N 39°17' W 076°35'0 0.0
2017-Oct-14 18:59N 39°17' W 076°35'0 0.0
2017-Oct-14 18:29N 39°17' W 076°35'0 0.4
2017-Oct-14 18:00N 39°17' W 076°35'4 5.5
2017-Oct-14 17:15N 39°13' W 076°32'14 0.6
2017-Oct-13 18:52N 39°01' W 076°22'2 5.0
2017-Oct-13 18:30N 38°59' W 076°23'2 4.2
2017-Oct-13 18:00N 38°57' W 076°23'8 3.2
2017-Oct-13 15:25N 38°52' W 076°31'1 0.0
2017-Oct-12 14:05N 38°53' W 076°31'1 5.2
2017-Oct-12 13:59N 38°52' W 076°31'2 3.9
2017-Oct-12 13:30N 38°51' W 076°32'0 0.0
2017-Oct-11 18:13N 38°50' W 076°32'0 0.0
2017-Oct-11 17:58N 38°50' W 076°32'0 0.0
2017-Oct-11 17:30N 38°50' W 076°32'  

Dump ship's entire track history